New Orleans, LA

7:25 AM CST on December 11, 2016 (GMT -0600)
Downtown CBD New Orleans | | Change Station

Elev 28 ft 29.94 °N, 90.07 °W | Updated 10 seconds ago

Clear
Clear
48.0 °F
Feels Like 48 °F
N
2.7
Wind Variable Wind from SE
Gusts 4.9 mph

Today
High -- | Low -- °F
--% Chance of Precip.
Yesterday
High -- | Low -- °F
Precip. -- in
Pressure 30.24 in
Visibility 8.0 miles
Clouds Clear
Windchill 48 °F
Dew Point 43 °F
Humidity 82%
Rainfall 0.00 in
Snow Depth Not available.
6:46 AM 5:01 PM
Waxing Gibbous, 91% visible
METAR KNEW 111253Z AUTO 09011KT 8SM CLR 08/06 A3025 RMK AO2 SLP238 T00830056
Pressure 30.24 in
Visibility 8.0 miles
Clouds Clear
Windchill 48 °F
Dew Point 43 °F
Humidity 82%
Rainfall 0.00 in
Snow Depth Not available.
6:46 AM 5:01 PM
Waxing Gibbous, 91% visible
METAR KNEW 111253Z AUTO 09011KT 8SM CLR 08/06 A3025 RMK AO2 SLP238 T00830056

10-Day Weather Forecast

Almanac

Astronomy

Dec. 11, 2016 Rise Set
Actual Time
Civil Twilight
Nautical Twilight
Astronomical Twilight
Moon
Length of Visible Light
Length of Day
Tomorrow will be .
, % of the Moon is Illuminated

Today's Extremes

State Highs State Lows

Community

WunderPhotos

Upload Photos

1,956,710 photos uploaded!

WunderBlog® & News

Nearby

Air Quality

  Air Quality AQ Index Pollutant
Not available.

Snow Depth

Station Depth Elevation

Earthquake Activity

City Distance Mag. Time & Date
Minimum magnitude displayed is 2.5.

Coastal Water Temperatures

Place Temperature

Stations

Nearby Weather Stations

Station Location Temp. Windchill Dew Point Humidity Wind Precip. Elev Updated Type
                   

Watches & Warnings

There are currently no watches in effect.